sensor_id;sensor_type;location;lat;lon;timestamp;P1;durP1;ratioP1;P2;durP2;ratioP2
22176;SDS011;11254;50.098;8.726;2023-08-20T00:01:27;10.95;;;6.97;;
22176;SDS011;11254;50.098;8.726;2023-08-20T00:03:56;11.93;;;6.47;;
22176;SDS011;11254;50.098;8.726;2023-08-20T00:06:25;11.52;;;6.53;;
22176;SDS011;11254;50.098;8.726;2023-08-20T00:08:54;10.10;;;6.10;;
22176;SDS011;11254;50.098;8.726;2023-08-20T00:11:23;8.45;;;6.10;;
22176;SDS011;11254;50.098;8.726;2023-08-20T00:13:51;9.25;;;6.75;;
22176;SDS011;11254;50.098;8.726;2023-08-20T00:16:20;10.95;;;7.00;;
22176;SDS011;11254;50.098;8.726;2023-08-20T00:18:48;10.82;;;6.97;;
22176;SDS011;11254;50.098;8.726;2023-08-20T00:21:17;12.40;;;7.22;;
22176;SDS011;11254;50.098;8.726;2023-08-20T00:23:46;12.32;;;7.30;;
22176;SDS011;11254;50.098;8.726;2023-08-20T00:26:16;12.27;;;7.70;;
22176;SDS011;11254;50.098;8.726;2023-08-20T00:28:44;14.15;;;7.25;;
22176;SDS011;11254;50.098;8.726;2023-08-20T00:31:13;10.52;;;6.63;;
22176;SDS011;11254;50.098;8.726;2023-08-20T00:33:41;12.18;;;7.63;;
22176;SDS011;11254;50.098;8.726;2023-08-20T00:36:30;12.25;;;6.72;;
22176;SDS011;11254;50.098;8.726;2023-08-20T00:38:58;12.20;;;6.85;;
22176;SDS011;11254;50.098;8.726;2023-08-20T00:41:28;13.48;;;7.22;;
22176;SDS011;11254;50.098;8.726;2023-08-20T00:43:57;12.55;;;7.03;;
22176;SDS011;11254;50.098;8.726;2023-08-20T00:46:26;12.27;;;7.05;;
22176;SDS011;11254;50.098;8.726;2023-08-20T00:48:54;9.77;;;6.72;;
22176;SDS011;11254;50.098;8.726;2023-08-20T00:51:23;10.88;;;6.85;;
22176;SDS011;11254;50.098;8.726;2023-08-20T00:53:51;11.63;;;7.40;;
22176;SDS011;11254;50.098;8.726;2023-08-20T00:56:20;10.38;;;7.10;;
22176;SDS011;11254;50.098;8.726;2023-08-20T00:58:49;12.15;;;7.07;;
22176;SDS011;11254;50.098;8.726;2023-08-20T01:01:18;10.13;;;6.88;;
22176;SDS011;11254;50.098;8.726;2023-08-20T01:03:46;11.82;;;7.43;;
22176;SDS011;11254;50.098;8.726;2023-08-20T01:06:16;12.65;;;7.50;;
22176;SDS011;11254;50.098;8.726;2023-08-20T01:08:50;13.07;;;7.32;;
22176;SDS011;11254;50.098;8.726;2023-08-20T01:11:24;12.90;;;6.95;;
22176;SDS011;11254;50.098;8.726;2023-08-20T01:13:56;11.10;;;7.20;;
22176;SDS011;11254;50.098;8.726;2023-08-20T01:16:27;10.15;;;7.10;;
22176;SDS011;11254;50.098;8.726;2023-08-20T01:18:55;11.75;;;7.30;;
22176;SDS011;11254;50.098;8.726;2023-08-20T01:21:26;10.20;;;7.20;;
22176;SDS011;11254;50.098;8.726;2023-08-20T01:24:10;10.52;;;7.10;;
22176;SDS011;11254;50.098;8.726;2023-08-20T01:26:49;12.90;;;7.13;;
22176;SDS011;11254;50.098;8.726;2023-08-20T01:29:24;11.93;;;7.50;;
22176;SDS011;11254;50.098;8.726;2023-08-20T01:31:53;11.75;;;7.05;;
22176;SDS011;11254;50.098;8.726;2023-08-20T01:34:22;11.85;;;6.93;;
22176;SDS011;11254;50.098;8.726;2023-08-20T01:36:51;9.98;;;6.97;;
22176;SDS011;11254;50.098;8.726;2023-08-20T01:39:19;12.02;;;7.00;;
22176;SDS011;11254;50.098;8.726;2023-08-20T01:41:47;12.75;;;7.47;;
22176;SDS011;11254;50.098;8.726;2023-08-20T01:44:16;10.77;;;7.53;;
22176;SDS011;11254;50.098;8.726;2023-08-20T01:46:45;10.82;;;6.43;;
22176;SDS011;11254;50.098;8.726;2023-08-20T01:49:15;10.77;;;7.30;;
22176;SDS011;11254;50.098;8.726;2023-08-20T01:51:44;12.65;;;7.90;;
22176;SDS011;11254;50.098;8.726;2023-08-20T01:54:12;10.88;;;6.80;;
22176;SDS011;11254;50.098;8.726;2023-08-20T01:56:40;11.88;;;8.32;;
22176;SDS011;11254;50.098;8.726;2023-08-20T01:59:10;11.65;;;6.82;;
22176;SDS011;11254;50.098;8.726;2023-08-20T02:01:39;11.63;;;7.55;;
22176;SDS011;11254;50.098;8.726;2023-08-20T02:04:08;11.90;;;7.38;;
22176;SDS011;11254;50.098;8.726;2023-08-20T02:06:37;11.32;;;7.55;;
22176;SDS011;11254;50.098;8.726;2023-08-20T02:09:05;15.20;;;7.82;;
22176;SDS011;11254;50.098;8.726;2023-08-20T02:11:33;11.32;;;7.47;;
22176;SDS011;11254;50.098;8.726;2023-08-20T02:14:02;13.57;;;7.80;;
22176;SDS011;11254;50.098;8.726;2023-08-20T02:16:31;10.52;;;7.32;;
22176;SDS011;11254;50.098;8.726;2023-08-20T02:19:00;10.27;;;7.18;;
22176;SDS011;11254;50.098;8.726;2023-08-20T02:21:30;11.27;;;7.90;;
22176;SDS011;11254;50.098;8.726;2023-08-20T02:23:58;12.70;;;8.52;;
22176;SDS011;11254;50.098;8.726;2023-08-20T02:26:27;11.13;;;7.85;;
22176;SDS011;11254;50.098;8.726;2023-08-20T02:28:55;11.20;;;7.80;;
22176;SDS011;11254;50.098;8.726;2023-08-20T02:31:24;13.20;;;8.10;;
22176;SDS011;11254;50.098;8.726;2023-08-20T02:33:56;14.32;;;8.80;;
22176;SDS011;11254;50.098;8.726;2023-08-20T02:36:24;12.18;;;7.28;;
22176;SDS011;11254;50.098;8.726;2023-08-20T02:38:54;11.18;;;7.90;;
22176;SDS011;11254;50.098;8.726;2023-08-20T02:41:22;11.52;;;8.90;;
22176;SDS011;11254;50.098;8.726;2023-08-20T02:43:51;13.15;;;8.63;;
22176;SDS011;11254;50.098;8.726;2023-08-20T02:46:19;13.65;;;8.25;;
22176;SDS011;11254;50.098;8.726;2023-08-20T02:48:47;11.20;;;7.82;;
22176;SDS011;11254;50.098;8.726;2023-08-20T02:51:16;11.18;;;7.78;;
22176;SDS011;11254;50.098;8.726;2023-08-20T02:53:45;13.00;;;8.57;;
22176;SDS011;11254;50.098;8.726;2023-08-20T02:56:14;10.48;;;8.35;;
22176;SDS011;11254;50.098;8.726;2023-08-20T02:58:43;13.63;;;8.85;;
22176;SDS011;11254;50.098;8.726;2023-08-20T03:01:18;11.07;;;8.10;;
22176;SDS011;11254;50.098;8.726;2023-08-20T03:03:47;11.52;;;8.38;;
22176;SDS011;11254;50.098;8.726;2023-08-20T03:06:15;12.05;;;7.70;;
22176;SDS011;11254;50.098;8.726;2023-08-20T03:08:44;12.05;;;8.27;;
22176;SDS011;11254;50.098;8.726;2023-08-20T03:11:12;13.45;;;8.35;;
22176;SDS011;11254;50.098;8.726;2023-08-20T03:13:42;14.13;;;8.52;;
22176;SDS011;11254;50.098;8.726;2023-08-20T03:16:10;11.52;;;8.60;;
22176;SDS011;11254;50.098;8.726;2023-08-20T03:18:38;14.40;;;9.38;;
22176;SDS011;11254;50.098;8.726;2023-08-20T03:21:07;13.55;;;8.38;;
22176;SDS011;11254;50.098;8.726;2023-08-20T03:23:35;12.70;;;9.07;;
22176;SDS011;11254;50.098;8.726;2023-08-20T03:26:04;12.43;;;8.63;;
22176;SDS011;11254;50.098;8.726;2023-08-20T03:28:32;14.13;;;9.40;;
22176;SDS011;11254;50.098;8.726;2023-08-20T03:31:02;13.18;;;9.32;;
22176;SDS011;11254;50.098;8.726;2023-08-20T03:33:35;15.75;;;9.25;;
22176;SDS011;11254;50.098;8.726;2023-08-20T03:36:04;14.55;;;9.57;;
22176;SDS011;11254;50.098;8.726;2023-08-20T03:38:32;12.27;;;8.95;;
22176;SDS011;11254;50.098;8.726;2023-08-20T03:41:01;13.90;;;9.02;;
22176;SDS011;11254;50.098;8.726;2023-08-20T03:43:29;15.38;;;9.32;;
22176;SDS011;11254;50.098;8.726;2023-08-20T03:45:58;14.38;;;9.52;;
22176;SDS011;11254;50.098;8.726;2023-08-20T03:48:28;14.35;;;9.50;;
22176;SDS011;11254;50.098;8.726;2023-08-20T03:50:56;14.50;;;9.38;;
22176;SDS011;11254;50.098;8.726;2023-08-20T03:53:24;13.40;;;9.60;;
22176;SDS011;11254;50.098;8.726;2023-08-20T03:55:53;13.02;;;8.68;;
22176;SDS011;11254;50.098;8.726;2023-08-20T03:58:21;13.77;;;9.80;;
22176;SDS011;11254;50.098;8.726;2023-08-20T04:00:49;14.25;;;9.35;;
22176;SDS011;11254;50.098;8.726;2023-08-20T04:03:18;13.93;;;9.80;;
22176;SDS011;11254;50.098;8.726;2023-08-20T04:05:49;14.38;;;9.45;;
22176;SDS011;11254;50.098;8.726;2023-08-20T04:08:17;14.02;;;9.27;;
22176;SDS011;11254;50.098;8.726;2023-08-20T04:10:46;14.10;;;10.13;;
22176;SDS011;11254;50.098;8.726;2023-08-20T04:13:14;12.88;;;9.40;;
22176;SDS011;11254;50.098;8.726;2023-08-20T04:15:43;13.15;;;9.55;;
22176;SDS011;11254;50.098;8.726;2023-08-20T04:18:11;14.52;;;9.77;;
22176;SDS011;11254;50.098;8.726;2023-08-20T04:20:39;14.65;;;10.02;;
22176;SDS011;11254;50.098;8.726;2023-08-20T04:23:09;14.50;;;10.25;;
22176;SDS011;11254;50.098;8.726;2023-08-20T04:25:38;17.95;;;11.13;;
22176;SDS011;11254;50.098;8.726;2023-08-20T04:28:06;14.48;;;10.55;;
22176;SDS011;11254;50.098;8.726;2023-08-20T04:30:35;19.52;;;11.73;;
22176;SDS011;11254;50.098;8.726;2023-08-20T04:33:04;16.63;;;10.57;;
22176;SDS011;11254;50.098;8.726;2023-08-20T04:35:33;15.75;;;10.70;;
22176;SDS011;11254;50.098;8.726;2023-08-20T04:38:02;16.77;;;9.75;;
22176;SDS011;11254;50.098;8.726;2023-08-20T04:40:32;15.80;;;10.20;;
22176;SDS011;11254;50.098;8.726;2023-08-20T04:43:01;15.90;;;9.85;;
22176;SDS011;11254;50.098;8.726;2023-08-20T04:45:29;15.05;;;10.35;;
22176;SDS011;11254;50.098;8.726;2023-08-20T04:47:58;14.02;;;9.20;;
22176;SDS011;11254;50.098;8.726;2023-08-20T04:50:28;12.55;;;9.40;;
22176;SDS011;11254;50.098;8.726;2023-08-20T04:52:56;14.25;;;10.13;;
22176;SDS011;11254;50.098;8.726;2023-08-20T04:55:26;14.05;;;9.75;;
22176;SDS011;11254;50.098;8.726;2023-08-20T04:57:56;11.90;;;9.05;;
22176;SDS011;11254;50.098;8.726;2023-08-20T05:00:24;17.80;;;9.85;;
22176;SDS011;11254;50.098;8.726;2023-08-20T05:03:01;13.25;;;9.65;;
22176;SDS011;11254;50.098;8.726;2023-08-20T05:05:29;13.98;;;9.30;;
22176;SDS011;11254;50.098;8.726;2023-08-20T05:07:58;14.02;;;9.32;;
22176;SDS011;11254;50.098;8.726;2023-08-20T05:10:26;14.07;;;9.30;;
22176;SDS011;11254;50.098;8.726;2023-08-20T05:12:56;10.88;;;8.23;;
22176;SDS011;11254;50.098;8.726;2023-08-20T05:15:24;13.98;;;8.90;;
22176;SDS011;11254;50.098;8.726;2023-08-20T05:17:52;14.80;;;8.85;;
22176;SDS011;11254;50.098;8.726;2023-08-20T05:20:21;11.85;;;8.77;;
22176;SDS011;11254;50.098;8.726;2023-08-20T05:22:49;10.23;;;7.47;;
22176;SDS011;11254;50.098;8.726;2023-08-20T05:25:18;13.02;;;9.02;;
22176;SDS011;11254;50.098;8.726;2023-08-20T05:27:48;14.90;;;8.82;;
22176;SDS011;11254;50.098;8.726;2023-08-20T05:30:17;15.40;;;9.48;;
22176;SDS011;11254;50.098;8.726;2023-08-20T05:32:46;14.07;;;9.65;;
22176;SDS011;11254;50.098;8.726;2023-08-20T05:35:14;14.30;;;9.48;;
22176;SDS011;11254;50.098;8.726;2023-08-20T05:37:43;12.82;;;9.32;;
22176;SDS011;11254;50.098;8.726;2023-08-20T05:40:12;15.80;;;9.73;;
22176;SDS011;11254;50.098;8.726;2023-08-20T05:42:40;13.48;;;9.48;;
22176;SDS011;11254;50.098;8.726;2023-08-20T05:45:09;13.18;;;9.38;;
22176;SDS011;11254;50.098;8.726;2023-08-20T05:47:39;15.68;;;10.02;;
22176;SDS011;11254;50.098;8.726;2023-08-20T05:50:08;15.73;;;9.80;;
22176;SDS011;11254;50.098;8.726;2023-08-20T05:52:36;17.55;;;9.77;;
22176;SDS011;11254;50.098;8.726;2023-08-20T05:55:05;16.33;;;10.15;;
22176;SDS011;11254;50.098;8.726;2023-08-20T05:57:34;14.48;;;9.85;;
22176;SDS011;11254;50.098;8.726;2023-08-20T06:00:03;13.40;;;10.00;;
22176;SDS011;11254;50.098;8.726;2023-08-20T06:02:39;13.80;;;9.13;;
22176;SDS011;11254;50.098;8.726;2023-08-20T06:05:09;15.27;;;10.43;;
22176;SDS011;11254;50.098;8.726;2023-08-20T06:07:39;15.52;;;9.55;;
22176;SDS011;11254;50.098;8.726;2023-08-20T06:10:08;12.68;;;8.57;;
22176;SDS011;11254;50.098;8.726;2023-08-20T06:12:38;12.82;;;9.10;;
22176;SDS011;11254;50.098;8.726;2023-08-20T06:15:07;13.15;;;9.30;;
22176;SDS011;11254;50.098;8.726;2023-08-20T06:17:35;14.10;;;9.10;;
22176;SDS011;11254;50.098;8.726;2023-08-20T06:20:06;16.58;;;10.35;;
22176;SDS011;11254;50.098;8.726;2023-08-20T06:22:35;17.10;;;9.90;;
22176;SDS011;11254;50.098;8.726;2023-08-20T06:25:04;14.25;;;9.35;;
22176;SDS011;11254;50.098;8.726;2023-08-20T06:27:32;17.63;;;9.05;;
22176;SDS011;11254;50.098;8.726;2023-08-20T06:30:02;13.32;;;9.65;;
22176;SDS011;11254;50.098;8.726;2023-08-20T06:32:32;15.30;;;9.70;;
22176;SDS011;11254;50.098;8.726;2023-08-20T06:35:00;13.63;;;10.02;;
22176;SDS011;11254;50.098;8.726;2023-08-20T06:37:30;17.08;;;9.55;;
22176;SDS011;11254;50.098;8.726;2023-08-20T06:39:59;12.35;;;8.95;;
22176;SDS011;11254;50.098;8.726;2023-08-20T06:42:28;13.15;;;9.30;;
22176;SDS011;11254;50.098;8.726;2023-08-20T06:44:56;12.25;;;9.27;;
22176;SDS011;11254;50.098;8.726;2023-08-20T06:47:24;13.20;;;9.20;;
22176;SDS011;11254;50.098;8.726;2023-08-20T06:49:53;14.20;;;8.60;;
22176;SDS011;11254;50.098;8.726;2023-08-20T06:52:22;12.63;;;9.38;;
22176;SDS011;11254;50.098;8.726;2023-08-20T06:54:51;14.27;;;9.13;;
22176;SDS011;11254;50.098;8.726;2023-08-20T06:57:20;13.98;;;9.43;;
22176;SDS011;11254;50.098;8.726;2023-08-20T06:59:48;14.68;;;8.88;;
22176;SDS011;11254;50.098;8.726;2023-08-20T07:02:16;12.90;;;9.02;;
22176;SDS011;11254;50.098;8.726;2023-08-20T07:04:45;12.93;;;9.10;;
22176;SDS011;11254;50.098;8.726;2023-08-20T07:07:13;12.93;;;8.98;;
22176;SDS011;11254;50.098;8.726;2023-08-20T07:09:42;13.15;;;9.00;;
22176;SDS011;11254;50.098;8.726;2023-08-20T07:12:12;12.48;;;8.73;;
22176;SDS011;11254;50.098;8.726;2023-08-20T07:14:40;14.85;;;9.32;;
22176;SDS011;11254;50.098;8.726;2023-08-20T07:17:08;15.13;;;8.52;;
22176;SDS011;11254;50.098;8.726;2023-08-20T07:19:37;12.13;;;8.02;;
22176;SDS011;11254;50.098;8.726;2023-08-20T07:22:05;11.48;;;6.90;;
22176;SDS011;11254;50.098;8.726;2023-08-20T07:24:34;13.13;;;7.50;;
22176;SDS011;11254;50.098;8.726;2023-08-20T07:27:02;10.15;;;6.93;;
22176;SDS011;11254;50.098;8.726;2023-08-20T07:29:38;10.07;;;6.97;;
22176;SDS011;11254;50.098;8.726;2023-08-20T07:32:07;10.43;;;7.07;;
22176;SDS011;11254;50.098;8.726;2023-08-20T07:34:35;10.45;;;6.32;;
22176;SDS011;11254;50.098;8.726;2023-08-20T07:37:03;11.98;;;6.60;;
22176;SDS011;11254;50.098;8.726;2023-08-20T07:39:32;10.05;;;7.15;;
22176;SDS011;11254;50.098;8.726;2023-08-20T07:42:01;10.77;;;7.57;;
22176;SDS011;11254;50.098;8.726;2023-08-20T07:44:30;9.38;;;6.70;;
22176;SDS011;11254;50.098;8.726;2023-08-20T07:46:59;10.80;;;7.30;;
22176;SDS011;11254;50.098;8.726;2023-08-20T07:49:28;9.40;;;7.05;;
22176;SDS011;11254;50.098;8.726;2023-08-20T07:51:56;10.65;;;7.07;;
22176;SDS011;11254;50.098;8.726;2023-08-20T07:54:24;11.23;;;6.95;;
22176;SDS011;11254;50.098;8.726;2023-08-20T07:56:54;11.10;;;7.00;;
22176;SDS011;11254;50.098;8.726;2023-08-20T07:59:23;9.45;;;6.53;;
22176;SDS011;11254;50.098;8.726;2023-08-20T08:01:51;8.70;;;6.72;;
22176;SDS011;11254;50.098;8.726;2023-08-20T08:04:21;9.85;;;7.10;;
22176;SDS011;11254;50.098;8.726;2023-08-20T08:06:49;8.55;;;6.90;;
22176;SDS011;11254;50.098;8.726;2023-08-20T08:09:18;9.05;;;7.38;;
22176;SDS011;11254;50.098;8.726;2023-08-20T08:11:48;11.07;;;7.00;;
22176;SDS011;11254;50.098;8.726;2023-08-20T08:14:16;10.00;;;6.78;;
22176;SDS011;11254;50.098;8.726;2023-08-20T08:16:45;10.57;;;7.15;;
22176;SDS011;11254;50.098;8.726;2023-08-20T08:19:14;11.60;;;6.75;;
22176;SDS011;11254;50.098;8.726;2023-08-20T08:21:44;10.95;;;7.70;;
22176;SDS011;11254;50.098;8.726;2023-08-20T08:24:13;9.45;;;7.20;;
22176;SDS011;11254;50.098;8.726;2023-08-20T08:26:41;11.30;;;7.40;;
22176;SDS011;11254;50.098;8.726;2023-08-20T08:29:10;11.65;;;7.60;;
22176;SDS011;11254;50.098;8.726;2023-08-20T08:31:38;11.27;;;7.45;;
22176;SDS011;11254;50.098;8.726;2023-08-20T08:34:06;11.60;;;7.32;;
22176;SDS011;11254;50.098;8.726;2023-08-20T08:36:35;10.68;;;7.25;;
22176;SDS011;11254;50.098;8.726;2023-08-20T08:39:05;13.45;;;7.57;;
22176;SDS011;11254;50.098;8.726;2023-08-20T08:41:35;10.13;;;7.93;;
22176;SDS011;11254;50.098;8.726;2023-08-20T08:44:04;10.15;;;8.18;;
22176;SDS011;11254;50.098;8.726;2023-08-20T08:46:36;11.77;;;8.05;;
22176;SDS011;11254;50.098;8.726;2023-08-20T08:49:15;11.10;;;7.47;;
22176;SDS011;11254;50.098;8.726;2023-08-20T08:51:44;10.35;;;7.50;;
22176;SDS011;11254;50.098;8.726;2023-08-20T08:54:17;14.07;;;8.30;;
22176;SDS011;11254;50.098;8.726;2023-08-20T08:56:46;11.85;;;8.32;;
22176;SDS011;11254;50.098;8.726;2023-08-20T08:59:15;10.48;;;8.27;;
22176;SDS011;11254;50.098;8.726;2023-08-20T09:01:44;12.02;;;7.32;;
22176;SDS011;11254;50.098;8.726;2023-08-20T09:04:16;9.90;;;7.70;;
22176;SDS011;11254;50.098;8.726;2023-08-20T09:06:45;9.85;;;8.35;;
22176;SDS011;11254;50.098;8.726;2023-08-20T09:09:17;11.93;;;8.15;;
22176;SDS011;11254;50.098;8.726;2023-08-20T09:11:46;12.27;;;8.18;;
22176;SDS011;11254;50.098;8.726;2023-08-20T09:14:21;10.40;;;8.63;;
22176;SDS011;11254;50.098;8.726;2023-08-20T09:16:56;14.32;;;8.60;;
22176;SDS011;11254;50.098;8.726;2023-08-20T09:19:27;12.02;;;7.63;;
22176;SDS011;11254;50.098;8.726;2023-08-20T09:21:59;10.10;;;7.80;;
22176;SDS011;11254;50.098;8.726;2023-08-20T09:24:33;10.70;;;8.05;;
22176;SDS011;11254;50.098;8.726;2023-08-20T09:27:03;10.35;;;7.90;;
22176;SDS011;11254;50.098;8.726;2023-08-20T09:29:32;9.95;;;7.53;;
22176;SDS011;11254;50.098;8.726;2023-08-20T09:32:01;10.52;;;8.02;;
22176;SDS011;11254;50.098;8.726;2023-08-20T09:34:36;9.75;;;7.82;;
22176;SDS011;11254;50.098;8.726;2023-08-20T09:37:09;12.05;;;8.48;;
22176;SDS011;11254;50.098;8.726;2023-08-20T09:39:39;10.20;;;7.80;;
22176;SDS011;11254;50.098;8.726;2023-08-20T09:42:07;12.95;;;8.07;;
22176;SDS011;11254;50.098;8.726;2023-08-20T09:44:36;10.93;;;8.57;;
22176;SDS011;11254;50.098;8.726;2023-08-20T09:47:06;11.82;;;8.73;;
22176;SDS011;11254;50.098;8.726;2023-08-20T09:49:38;8.75;;;6.95;;
22176;SDS011;11254;50.098;8.726;2023-08-20T09:52:07;10.40;;;7.60;;
22176;SDS011;11254;50.098;8.726;2023-08-20T09:54:43;9.55;;;7.80;;
22176;SDS011;11254;50.098;8.726;2023-08-20T09:57:14;13.60;;;8.02;;
22176;SDS011;11254;50.098;8.726;2023-08-20T09:59:49;12.68;;;7.63;;
22176;SDS011;11254;50.098;8.726;2023-08-20T10:02:18;10.45;;;7.35;;
22176;SDS011;11254;50.098;8.726;2023-08-20T10:04:47;8.73;;;6.63;;
22176;SDS011;11254;50.098;8.726;2023-08-20T10:07:17;9.10;;;6.53;;
22176;SDS011;11254;50.098;8.726;2023-08-20T10:09:47;10.63;;;7.28;;
22176;SDS011;11254;50.098;8.726;2023-08-20T10:12:18;9.60;;;6.90;;
22176;SDS011;11254;50.098;8.726;2023-08-20T10:14:47;10.75;;;8.00;;
22176;SDS011;11254;50.098;8.726;2023-08-20T10:17:15;10.23;;;7.88;;
22176;SDS011;11254;50.098;8.726;2023-08-20T10:19:46;10.50;;;6.68;;
22176;SDS011;11254;50.098;8.726;2023-08-20T10:22:15;10.25;;;7.93;;
22176;SDS011;11254;50.098;8.726;2023-08-20T10:24:48;10.15;;;7.65;;
22176;SDS011;11254;50.098;8.726;2023-08-20T10:27:26;11.00;;;7.32;;
22176;SDS011;11254;50.098;8.726;2023-08-20T10:29:55;8.95;;;6.63;;
22176;SDS011;11254;50.098;8.726;2023-08-20T10:35:07;10.27;;;7.28;;
22176;SDS011;11254;50.098;8.726;2023-08-20T10:37:36;9.20;;;7.53;;
22176;SDS011;11254;50.098;8.726;2023-08-20T10:40:08;9.80;;;7.45;;
22176;SDS011;11254;50.098;8.726;2023-08-20T10:42:40;11.32;;;8.52;;
22176;SDS011;11254;50.098;8.726;2023-08-20T10:45:10;11.50;;;8.73;;
22176;SDS011;11254;50.098;8.726;2023-08-20T10:47:43;11.23;;;8.32;;
22176;SDS011;11254;50.098;8.726;2023-08-20T10:50:15;10.98;;;7.93;;
22176;SDS011;11254;50.098;8.726;2023-08-20T10:52:47;11.32;;;8.63;;
22176;SDS011;11254;50.098;8.726;2023-08-20T10:55:22;11.77;;;8.98;;
22176;SDS011;11254;50.098;8.726;2023-08-20T10:57:55;9.32;;;7.10;;
22176;SDS011;11254;50.098;8.726;2023-08-20T11:00:32;12.18;;;9.30;;
22176;SDS011;11254;50.098;8.726;2023-08-20T11:03:05;10.82;;;7.72;;
22176;SDS011;11254;50.098;8.726;2023-08-20T11:05:35;10.20;;;8.00;;
22176;SDS011;11254;50.098;8.726;2023-08-20T11:08:04;10.40;;;7.38;;
22176;SDS011;11254;50.098;8.726;2023-08-20T11:10:35;13.27;;;8.65;;
22176;SDS011;11254;50.098;8.726;2023-08-20T11:13:04;11.60;;;7.60;;
22176;SDS011;11254;50.098;8.726;2023-08-20T11:15:32;11.63;;;7.70;;
22176;SDS011;11254;50.098;8.726;2023-08-20T11:18:03;10.30;;;7.68;;
22176;SDS011;11254;50.098;8.726;2023-08-20T11:20:32;10.50;;;7.85;;
22176;SDS011;11254;50.098;8.726;2023-08-20T11:23:02;13.30;;;8.00;;
22176;SDS011;11254;50.098;8.726;2023-08-20T11:25:33;15.95;;;8.32;;
22176;SDS011;11254;50.098;8.726;2023-08-20T11:28:04;9.88;;;7.82;;
22176;SDS011;11254;50.098;8.726;2023-08-20T11:30:40;10.48;;;7.70;;
22176;SDS011;11254;50.098;8.726;2023-08-20T11:33:09;12.40;;;7.70;;
22176;SDS011;11254;50.098;8.726;2023-08-20T11:35:38;9.25;;;6.55;;
22176;SDS011;11254;50.098;8.726;2023-08-20T11:38:07;10.18;;;5.45;;
22176;SDS011;11254;50.098;8.726;2023-08-20T11:40:38;10.90;;;6.43;;
22176;SDS011;11254;50.098;8.726;2023-08-20T11:43:10;10.25;;;5.45;;
22176;SDS011;11254;50.098;8.726;2023-08-20T11:45:45;7.68;;;5.55;;
22176;SDS011;11254;50.098;8.726;2023-08-20T11:48:15;9.25;;;5.75;;
22176;SDS011;11254;50.098;8.726;2023-08-20T11:50:43;9.35;;;5.93;;
22176;SDS011;11254;50.098;8.726;2023-08-20T11:53:12;11.45;;;6.50;;
22176;SDS011;11254;50.098;8.726;2023-08-20T11:55:41;8.45;;;5.97;;
22176;SDS011;11254;50.098;8.726;2023-08-20T11:58:14;8.57;;;6.03;;
22176;SDS011;11254;50.098;8.726;2023-08-20T12:00:47;8.85;;;6.30;;
22176;SDS011;11254;50.098;8.726;2023-08-20T12:03:31;10.02;;;5.95;;
22176;SDS011;11254;50.098;8.726;2023-08-20T12:06:16;7.38;;;5.00;;
22176;SDS011;11254;50.098;8.726;2023-08-20T12:08:46;11.68;;;5.80;;
22176;SDS011;11254;50.098;8.726;2023-08-20T12:11:24;8.32;;;5.13;;
22176;SDS011;11254;50.098;8.726;2023-08-20T12:13:55;9.88;;;5.40;;
22176;SDS011;11254;50.098;8.726;2023-08-20T12:16:26;8.23;;;5.05;;
22176;SDS011;11254;50.098;8.726;2023-08-20T12:18:58;8.45;;;5.43;;
22176;SDS011;11254;50.098;8.726;2023-08-20T12:21:34;7.93;;;4.75;;
22176;SDS011;11254;50.098;8.726;2023-08-20T12:24:10;6.38;;;4.82;;
22176;SDS011;11254;50.098;8.726;2023-08-20T12:26:51;8.50;;;5.20;;
22176;SDS011;11254;50.098;8.726;2023-08-20T12:29:26;10.80;;;6.03;;
22176;SDS011;11254;50.098;8.726;2023-08-20T12:31:56;8.10;;;5.57;;
22176;SDS011;11254;50.098;8.726;2023-08-20T12:34:26;6.70;;;5.00;;
22176;SDS011;11254;50.098;8.726;2023-08-20T12:36:59;8.32;;;5.97;;
22176;SDS011;11254;50.098;8.726;2023-08-20T12:39:32;8.35;;;5.50;;
22176;SDS011;11254;50.098;8.726;2023-08-20T12:42:04;7.65;;;4.65;;
22176;SDS011;11254;50.098;8.726;2023-08-20T12:44:44;8.50;;;5.25;;
22176;SDS011;11254;50.098;8.726;2023-08-20T12:47:14;7.70;;;5.22;;
22176;SDS011;11254;50.098;8.726;2023-08-20T12:49:46;8.73;;;5.03;;
22176;SDS011;11254;50.098;8.726;2023-08-20T12:52:15;8.18;;;5.68;;
22176;SDS011;11254;50.098;8.726;2023-08-20T12:54:44;8.23;;;5.07;;
22176;SDS011;11254;50.098;8.726;2023-08-20T12:57:13;9.32;;;5.93;;
22176;SDS011;11254;50.098;8.726;2023-08-20T12:59:49;9.25;;;5.70;;
22176;SDS011;11254;50.098;8.726;2023-08-20T13:02:18;7.20;;;4.72;;
22176;SDS011;11254;50.098;8.726;2023-08-20T13:04:47;6.65;;;4.72;;
22176;SDS011;11254;50.098;8.726;2023-08-20T13:07:21;6.78;;;4.80;;
22176;SDS011;11254;50.098;8.726;2023-08-20T13:09:50;9.32;;;5.00;;
22176;SDS011;11254;50.098;8.726;2023-08-20T13:12:22;12.30;;;5.53;;
22176;SDS011;11254;50.098;8.726;2023-08-20T13:14:58;8.68;;;5.10;;
22176;SDS011;11254;50.098;8.726;2023-08-20T13:17:29;9.55;;;5.25;;
22176;SDS011;11254;50.098;8.726;2023-08-20T13:20:07;8.77;;;5.28;;
22176;SDS011;11254;50.098;8.726;2023-08-20T13:22:43;7.10;;;4.72;;
22176;SDS011;11254;50.098;8.726;2023-08-20T13:25:21;7.10;;;4.85;;
22176;SDS011;11254;50.098;8.726;2023-08-20T13:27:56;8.82;;;4.60;;
22176;SDS011;11254;50.098;8.726;2023-08-20T13:30:33;6.30;;;4.30;;
22176;SDS011;11254;50.098;8.726;2023-08-20T13:33:02;9.77;;;4.88;;
22176;SDS011;11254;50.098;8.726;2023-08-20T13:35:34;7.38;;;4.95;;
22176;SDS011;11254;50.098;8.726;2023-08-20T13:38:04;6.28;;;4.55;;
22176;SDS011;11254;50.098;8.726;2023-08-20T13:40:35;10.77;;;5.32;;
22176;SDS011;11254;50.098;8.726;2023-08-20T13:43:04;9.57;;;4.80;;
22176;SDS011;11254;50.098;8.726;2023-08-20T13:45:40;6.95;;;4.70;;
22176;SDS011;11254;50.098;8.726;2023-08-20T13:48:10;8.82;;;4.63;;
22176;SDS011;11254;50.098;8.726;2023-08-20T13:50:43;6.25;;;4.38;;
22176;SDS011;11254;50.098;8.726;2023-08-20T13:53:12;6.20;;;4.15;;
22176;SDS011;11254;50.098;8.726;2023-08-20T13:55:41;8.43;;;4.30;;
22176;SDS011;11254;50.098;8.726;2023-08-20T13:58:14;6.30;;;4.40;;
22176;SDS011;11254;50.098;8.726;2023-08-20T14:00:44;5.70;;;4.18;;
22176;SDS011;11254;50.098;8.726;2023-08-20T14:03:12;6.63;;;4.15;;
22176;SDS011;11254;50.098;8.726;2023-08-20T14:05:45;6.72;;;4.03;;
22176;SDS011;11254;50.098;8.726;2023-08-20T14:08:17;7.45;;;4.05;;
22176;SDS011;11254;50.098;8.726;2023-08-20T14:10:53;7.72;;;4.47;;
22176;SDS011;11254;50.098;8.726;2023-08-20T14:13:23;7.00;;;4.82;;
22176;SDS011;11254;50.098;8.726;2023-08-20T14:15:55;7.43;;;4.20;;
22176;SDS011;11254;50.098;8.726;2023-08-20T14:18:27;7.15;;;4.20;;
22176;SDS011;11254;50.098;8.726;2023-08-20T14:21:01;5.93;;;4.10;;
22176;SDS011;11254;50.098;8.726;2023-08-20T14:23:34;6.97;;;4.30;;
22176;SDS011;11254;50.098;8.726;2023-08-20T14:26:04;8.82;;;4.90;;
22176;SDS011;11254;50.098;8.726;2023-08-20T14:28:37;7.82;;;4.47;;
22176;SDS011;11254;50.098;8.726;2023-08-20T14:31:09;9.73;;;4.88;;
22176;SDS011;11254;50.098;8.726;2023-08-20T14:33:44;8.10;;;4.20;;
22176;SDS011;11254;50.098;8.726;2023-08-20T14:36:14;9.63;;;4.47;;
22176;SDS011;11254;50.098;8.726;2023-08-20T14:38:44;6.07;;;4.18;;
22176;SDS011;11254;50.098;8.726;2023-08-20T14:41:21;7.78;;;4.40;;
22176;SDS011;11254;50.098;8.726;2023-08-20T14:43:49;8.98;;;4.65;;
22176;SDS011;11254;50.098;8.726;2023-08-20T14:46:20;8.18;;;5.20;;
22176;SDS011;11254;50.098;8.726;2023-08-20T14:48:50;7.53;;;4.50;;
22176;SDS011;11254;50.098;8.726;2023-08-20T14:51:19;6.72;;;4.50;;
22176;SDS011;11254;50.098;8.726;2023-08-20T14:53:48;7.57;;;4.80;;
22176;SDS011;11254;50.098;8.726;2023-08-20T14:56:17;8.57;;;4.85;;
22176;SDS011;11254;50.098;8.726;2023-08-20T14:58:45;7.05;;;4.70;;